sensor_id;sensor_type;location;lat;lon;timestamp;temperature;humidity
12604;DHT22;6367;52.508;13.284;2024-01-15T00:00:13;6.60;99.90
12604;DHT22;6367;52.508;13.284;2024-01-15T00:02:38;6.60;99.90
12604;DHT22;6367;52.508;13.284;2024-01-15T00:05:04;6.60;99.90
12604;DHT22;6367;52.508;13.284;2024-01-15T00:07:30;6.50;99.90
12604;DHT22;6367;52.508;13.284;2024-01-15T00:09:55;6.50;99.90
12604;DHT22;6367;52.508;13.284;2024-01-15T00:12:21;6.40;99.90
12604;DHT22;6367;52.508;13.284;2024-01-15T00:14:47;6.50;99.90
12604;DHT22;6367;52.508;13.284;2024-01-15T00:17:12;6.50;99.90
12604;DHT22;6367;52.508;13.284;2024-01-15T00:19:38;6.50;99.90
12604;DHT22;6367;52.508;13.284;2024-01-15T00:22:04;6.40;99.90
12604;DHT22;6367;52.508;13.284;2024-01-15T00:24:30;6.40;99.90
12604;DHT22;6367;52.508;13.284;2024-01-15T00:26:55;6.50;99.90
12604;DHT22;6367;52.508;13.284;2024-01-15T00:29:21;6.60;99.90
12604;DHT22;6367;52.508;13.284;2024-01-15T00:31:47;6.50;99.90
12604;DHT22;6367;52.508;13.284;2024-01-15T00:34:12;6.40;99.90
12604;DHT22;6367;52.508;13.284;2024-01-15T00:36:38;6.30;99.90
12604;DHT22;6367;52.508;13.284;2024-01-15T00:39:04;6.90;99.90
12604;DHT22;6367;52.508;13.284;2024-01-15T00:41:31;6.60;99.90
12604;DHT22;6367;52.508;13.284;2024-01-15T00:43:56;6.40;99.90
12604;DHT22;6367;52.508;13.284;2024-01-15T00:46:22;6.40;99.90
12604;DHT22;6367;52.508;13.284;2024-01-15T00:48:47;6.40;99.90
12604;DHT22;6367;52.508;13.284;2024-01-15T00:51:13;7.10;99.90
12604;DHT22;6367;52.508;13.284;2024-01-15T00:53:40;7.20;99.90
12604;DHT22;6367;52.508;13.284;2024-01-15T00:56:05;6.50;99.90
12604;DHT22;6367;52.508;13.284;2024-01-15T00:58:31;6.40;99.90
12604;DHT22;6367;52.508;13.284;2024-01-15T01:00:57;6.80;99.90
12604;DHT22;6367;52.508;13.284;2024-01-15T01:03:22;6.40;99.90
12604;DHT22;6367;52.508;13.284;2024-01-15T01:05:48;6.40;99.90
12604;DHT22;6367;52.508;13.284;2024-01-15T01:08:15;6.60;99.90
12604;DHT22;6367;52.508;13.284;2024-01-15T01:10:41;6.50;99.90
12604;DHT22;6367;52.508;13.284;2024-01-15T01:13:08;6.40;99.90
12604;DHT22;6367;52.508;13.284;2024-01-15T01:15:34;6.40;99.90
12604;DHT22;6367;52.508;13.284;2024-01-15T01:18:00;6.30;99.90
12604;DHT22;6367;52.508;13.284;2024-01-15T01:20:25;6.30;99.90
12604;DHT22;6367;52.508;13.284;2024-01-15T01:22:51;6.40;99.90
12604;DHT22;6367;52.508;13.284;2024-01-15T01:25:17;6.40;99.90
12604;DHT22;6367;52.508;13.284;2024-01-15T01:27:42;6.30;99.90
12604;DHT22;6367;52.508;13.284;2024-01-15T01:30:09;6.30;99.90
12604;DHT22;6367;52.508;13.284;2024-01-15T01:32:34;6.30;99.90
12604;DHT22;6367;52.508;13.284;2024-01-15T01:35:00;6.20;99.90
12604;DHT22;6367;52.508;13.284;2024-01-15T01:37:26;6.20;99.90
12604;DHT22;6367;52.508;13.284;2024-01-15T01:39:52;6.20;99.90
12604;DHT22;6367;52.508;13.284;2024-01-15T01:42:17;6.20;99.90
12604;DHT22;6367;52.508;13.284;2024-01-15T01:44:43;6.10;99.90
12604;DHT22;6367;52.508;13.284;2024-01-15T01:47:09;6.10;99.90
12604;DHT22;6367;52.508;13.284;2024-01-15T01:49:34;6.20;99.90
12604;DHT22;6367;52.508;13.284;2024-01-15T01:52:02;6.50;99.90
12604;DHT22;6367;52.508;13.284;2024-01-15T01:54:30;6.00;99.90
12604;DHT22;6367;52.508;13.284;2024-01-15T01:56:57;6.10;99.90
12604;DHT22;6367;52.508;13.284;2024-01-15T01:59:25;6.10;99.90
12604;DHT22;6367;52.508;13.284;2024-01-15T02:01:51;6.20;99.90
12604;DHT22;6367;52.508;13.284;2024-01-15T02:04:18;6.10;99.90
12604;DHT22;6367;52.508;13.284;2024-01-15T02:06:44;6.10;99.90
12604;DHT22;6367;52.508;13.284;2024-01-15T02:09:11;6.00;99.90
12604;DHT22;6367;52.508;13.284;2024-01-15T02:11:41;6.00;99.90
12604;DHT22;6367;52.508;13.284;2024-01-15T02:14:07;6.60;99.90
12604;DHT22;6367;52.508;13.284;2024-01-15T02:16:32;5.90;99.90
12604;DHT22;6367;52.508;13.284;2024-01-15T02:18:58;5.90;99.90
12604;DHT22;6367;52.508;13.284;2024-01-15T02:21:23;6.00;99.90
12604;DHT22;6367;52.508;13.284;2024-01-15T02:23:51;6.00;99.90
12604;DHT22;6367;52.508;13.284;2024-01-15T02:26:17;5.90;99.90
12604;DHT22;6367;52.508;13.284;2024-01-15T02:28:43;5.90;99.90
12604;DHT22;6367;52.508;13.284;2024-01-15T02:31:09;5.90;99.90
12604;DHT22;6367;52.508;13.284;2024-01-15T02:33:35;6.40;99.90
12604;DHT22;6367;52.508;13.284;2024-01-15T02:36:01;5.90;99.90
12604;DHT22;6367;52.508;13.284;2024-01-15T02:38:26;5.90;99.90
12604;DHT22;6367;52.508;13.284;2024-01-15T02:40:52;5.90;99.90
12604;DHT22;6367;52.508;13.284;2024-01-15T02:43:17;5.90;99.90
12604;DHT22;6367;52.508;13.284;2024-01-15T02:45:45;5.90;99.90
12604;DHT22;6367;52.508;13.284;2024-01-15T02:48:11;5.90;99.90
12604;DHT22;6367;52.508;13.284;2024-01-15T02:50:37;5.90;99.90
12604;DHT22;6367;52.508;13.284;2024-01-15T02:53:03;5.90;99.90
12604;DHT22;6367;52.508;13.284;2024-01-15T02:55:28;5.90;99.90
12604;DHT22;6367;52.508;13.284;2024-01-15T02:57:57;5.90;99.90
12604;DHT22;6367;52.508;13.284;2024-01-15T03:00:23;5.90;99.90
12604;DHT22;6367;52.508;13.284;2024-01-15T03:02:50;6.00;99.90
12604;DHT22;6367;52.508;13.284;2024-01-15T03:05:16;6.00;99.90
12604;DHT22;6367;52.508;13.284;2024-01-15T03:07:42;6.00;99.90
12604;DHT22;6367;52.508;13.284;2024-01-15T03:10:08;6.00;99.90
12604;DHT22;6367;52.508;13.284;2024-01-15T03:12:34;6.00;99.90
12604;DHT22;6367;52.508;13.284;2024-01-15T03:15:00;6.70;99.90
12604;DHT22;6367;52.508;13.284;2024-01-15T03:17:25;6.00;99.90
12604;DHT22;6367;52.508;13.284;2024-01-15T03:19:51;6.50;99.90
12604;DHT22;6367;52.508;13.284;2024-01-15T03:22:17;6.00;99.90
12604;DHT22;6367;52.508;13.284;2024-01-15T03:24:43;6.00;99.90
12604;DHT22;6367;52.508;13.284;2024-01-15T03:27:09;6.10;99.90
12604;DHT22;6367;52.508;13.284;2024-01-15T03:29:34;6.20;99.90
12604;DHT22;6367;52.508;13.284;2024-01-15T03:32:00;6.00;99.90
12604;DHT22;6367;52.508;13.284;2024-01-15T03:34:26;6.00;99.90
12604;DHT22;6367;52.508;13.284;2024-01-15T03:36:51;6.00;99.90
12604;DHT22;6367;52.508;13.284;2024-01-15T03:39:17;6.00;99.90
12604;DHT22;6367;52.508;13.284;2024-01-15T03:41:43;6.10;99.90
12604;DHT22;6367;52.508;13.284;2024-01-15T03:44:08;6.00;99.90
12604;DHT22;6367;52.508;13.284;2024-01-15T03:46:34;6.00;99.90
12604;DHT22;6367;52.508;13.284;2024-01-15T03:49:00;6.00;99.90
12604;DHT22;6367;52.508;13.284;2024-01-15T03:51:25;6.00;99.90
12604;DHT22;6367;52.508;13.284;2024-01-15T03:53:51;6.00;99.90
12604;DHT22;6367;52.508;13.284;2024-01-15T03:56:16;6.00;99.90
12604;DHT22;6367;52.508;13.284;2024-01-15T03:58:42;5.90;99.90
12604;DHT22;6367;52.508;13.284;2024-01-15T04:01:11;6.50;99.90
12604;DHT22;6367;52.508;13.284;2024-01-15T04:03:37;6.00;99.90
12604;DHT22;6367;52.508;13.284;2024-01-15T04:06:03;6.00;99.90
12604;DHT22;6367;52.508;13.284;2024-01-15T04:08:29;6.10;99.90
12604;DHT22;6367;52.508;13.284;2024-01-15T04:10:54;6.00;99.90
12604;DHT22;6367;52.508;13.284;2024-01-15T04:13:21;6.00;99.90
12604;DHT22;6367;52.508;13.284;2024-01-15T04:15:46;6.00;99.90
12604;DHT22;6367;52.508;13.284;2024-01-15T04:18:12;6.10;99.90
12604;DHT22;6367;52.508;13.284;2024-01-15T04:20:38;6.10;99.90
12604;DHT22;6367;52.508;13.284;2024-01-15T04:23:04;7.00;99.90
12604;DHT22;6367;52.508;13.284;2024-01-15T04:25:30;6.10;99.90
12604;DHT22;6367;52.508;13.284;2024-01-15T04:27:56;6.10;99.90
12604;DHT22;6367;52.508;13.284;2024-01-15T04:30:22;6.00;99.90
12604;DHT22;6367;52.508;13.284;2024-01-15T04:32:47;6.10;99.90
12604;DHT22;6367;52.508;13.284;2024-01-15T04:35:13;6.00;99.90
12604;DHT22;6367;52.508;13.284;2024-01-15T04:37:39;6.10;99.90
12604;DHT22;6367;52.508;13.284;2024-01-15T04:40:06;6.30;99.90
12604;DHT22;6367;52.508;13.284;2024-01-15T04:42:31;6.10;99.90
12604;DHT22;6367;52.508;13.284;2024-01-15T04:44:57;6.10;99.90
12604;DHT22;6367;52.508;13.284;2024-01-15T04:47:23;6.10;99.90
12604;DHT22;6367;52.508;13.284;2024-01-15T04:49:48;6.00;99.90
12604;DHT22;6367;52.508;13.284;2024-01-15T04:52:14;6.90;99.90
12604;DHT22;6367;52.508;13.284;2024-01-15T04:54:40;6.80;99.90
12604;DHT22;6367;52.508;13.284;2024-01-15T04:57:06;6.40;99.90
12604;DHT22;6367;52.508;13.284;2024-01-15T04:59:32;6.20;99.90
12604;DHT22;6367;52.508;13.284;2024-01-15T05:01:57;6.20;99.90
12604;DHT22;6367;52.508;13.284;2024-01-15T05:04:23;6.20;99.90
12604;DHT22;6367;52.508;13.284;2024-01-15T05:06:50;6.10;99.90
12604;DHT22;6367;52.508;13.284;2024-01-15T05:09:16;5.90;99.90
12604;DHT22;6367;52.508;13.284;2024-01-15T05:11:43;6.10;99.90
12604;DHT22;6367;52.508;13.284;2024-01-15T05:14:09;6.10;99.90
12604;DHT22;6367;52.508;13.284;2024-01-15T05:16:35;6.10;99.90
12604;DHT22;6367;52.508;13.284;2024-01-15T05:19:00;6.10;99.90
12604;DHT22;6367;52.508;13.284;2024-01-15T05:21:26;6.20;99.90
12604;DHT22;6367;52.508;13.284;2024-01-15T05:23:51;6.20;99.90
12604;DHT22;6367;52.508;13.284;2024-01-15T05:26:17;6.30;99.90
12604;DHT22;6367;52.508;13.284;2024-01-15T05:28:43;6.30;99.90
12604;DHT22;6367;52.508;13.284;2024-01-15T05:31:09;6.60;99.90
12604;DHT22;6367;52.508;13.284;2024-01-15T05:33:35;6.20;99.90
12604;DHT22;6367;52.508;13.284;2024-01-15T05:36:00;6.20;99.90
12604;DHT22;6367;52.508;13.284;2024-01-15T05:38:27;6.10;99.90
12604;DHT22;6367;52.508;13.284;2024-01-15T05:40:53;6.20;99.90
12604;DHT22;6367;52.508;13.284;2024-01-15T05:43:18;6.90;99.90
12604;DHT22;6367;52.508;13.284;2024-01-15T05:45:44;6.20;99.90
12604;DHT22;6367;52.508;13.284;2024-01-15T05:48:10;6.20;99.90
12604;DHT22;6367;52.508;13.284;2024-01-15T05:50:36;6.70;99.90
12604;DHT22;6367;52.508;13.284;2024-01-15T05:53:01;6.20;99.90
12604;DHT22;6367;52.508;13.284;2024-01-15T05:55:28;6.20;99.90
12604;DHT22;6367;52.508;13.284;2024-01-15T05:57:53;6.30;99.90
12604;DHT22;6367;52.508;13.284;2024-01-15T06:00:19;6.20;99.90
12604;DHT22;6367;52.508;13.284;2024-01-15T06:02:45;6.30;99.90
12604;DHT22;6367;52.508;13.284;2024-01-15T06:05:11;6.20;99.90
12604;DHT22;6367;52.508;13.284;2024-01-15T06:07:36;6.30;99.90
12604;DHT22;6367;52.508;13.284;2024-01-15T06:10:03;6.30;99.90
12604;DHT22;6367;52.508;13.284;2024-01-15T06:12:30;6.20;99.90
12604;DHT22;6367;52.508;13.284;2024-01-15T06:14:56;6.20;99.90
12604;DHT22;6367;52.508;13.284;2024-01-15T06:17:22;7.00;99.90
12604;DHT22;6367;52.508;13.284;2024-01-15T06:19:47;6.20;99.90
12604;DHT22;6367;52.508;13.284;2024-01-15T06:22:13;6.20;99.90
12604;DHT22;6367;52.508;13.284;2024-01-15T06:24:39;6.70;99.90
12604;DHT22;6367;52.508;13.284;2024-01-15T06:27:04;6.10;99.90
12604;DHT22;6367;52.508;13.284;2024-01-15T06:29:30;6.20;99.90
12604;DHT22;6367;52.508;13.284;2024-01-15T06:31:56;6.30;99.90
12604;DHT22;6367;52.508;13.284;2024-01-15T06:34:21;6.70;99.90
12604;DHT22;6367;52.508;13.284;2024-01-15T06:36:47;6.30;99.90
12604;DHT22;6367;52.508;13.284;2024-01-15T06:39:13;6.20;99.90
12604;DHT22;6367;52.508;13.284;2024-01-15T06:41:38;6.30;99.90
12604;DHT22;6367;52.508;13.284;2024-01-15T06:44:09;6.30;99.90
12604;DHT22;6367;52.508;13.284;2024-01-15T06:46:36;6.30;99.90
12604;DHT22;6367;52.508;13.284;2024-01-15T06:49:01;6.30;99.90
12604;DHT22;6367;52.508;13.284;2024-01-15T06:51:27;6.90;99.90
12604;DHT22;6367;52.508;13.284;2024-01-15T06:53:53;6.30;99.90
12604;DHT22;6367;52.508;13.284;2024-01-15T06:56:18;6.30;99.90
12604;DHT22;6367;52.508;13.284;2024-01-15T06:58:44;6.20;99.90
12604;DHT22;6367;52.508;13.284;2024-01-15T07:01:10;6.30;99.90
12604;DHT22;6367;52.508;13.284;2024-01-15T07:03:36;6.30;99.90
12604;DHT22;6367;52.508;13.284;2024-01-15T07:06:01;6.40;99.90
12604;DHT22;6367;52.508;13.284;2024-01-15T07:08:27;6.30;99.90
12604;DHT22;6367;52.508;13.284;2024-01-15T07:10:53;7.10;99.90
12604;DHT22;6367;52.508;13.284;2024-01-15T07:13:18;6.40;99.90
12604;DHT22;6367;52.508;13.284;2024-01-15T07:15:44;6.30;99.90
12604;DHT22;6367;52.508;13.284;2024-01-15T07:18:10;6.40;99.90
12604;DHT22;6367;52.508;13.284;2024-01-15T07:20:35;6.30;99.90
12604;DHT22;6367;52.508;13.284;2024-01-15T07:23:01;6.40;99.90
12604;DHT22;6367;52.508;13.284;2024-01-15T07:25:27;6.40;99.90
12604;DHT22;6367;52.508;13.284;2024-01-15T07:27:53;6.50;99.90
12604;DHT22;6367;52.508;13.284;2024-01-15T07:30:20;6.50;99.90
12604;DHT22;6367;52.508;13.284;2024-01-15T07:32:47;6.50;99.90
12604;DHT22;6367;52.508;13.284;2024-01-15T07:35:14;6.50;99.90
12604;DHT22;6367;52.508;13.284;2024-01-15T07:37:41;6.60;99.90
12604;DHT22;6367;52.508;13.284;2024-01-15T07:40:07;6.60;99.90
12604;DHT22;6367;52.508;13.284;2024-01-15T07:42:37;6.60;99.90
12604;DHT22;6367;52.508;13.284;2024-01-15T07:45:04;6.60;99.90
12604;DHT22;6367;52.508;13.284;2024-01-15T07:47:29;6.60;99.90
12604;DHT22;6367;52.508;13.284;2024-01-15T07:49:55;6.50;99.90
12604;DHT22;6367;52.508;13.284;2024-01-15T07:52:21;6.50;99.90
12604;DHT22;6367;52.508;13.284;2024-01-15T07:54:47;7.30;99.90
12604;DHT22;6367;52.508;13.284;2024-01-15T07:57:13;6.60;99.90
12604;DHT22;6367;52.508;13.284;2024-01-15T07:59:39;6.60;99.90
12604;DHT22;6367;52.508;13.284;2024-01-15T08:02:05;6.50;99.90
12604;DHT22;6367;52.508;13.284;2024-01-15T08:04:31;6.50;99.90
12604;DHT22;6367;52.508;13.284;2024-01-15T08:06:57;6.60;99.90
12604;DHT22;6367;52.508;13.284;2024-01-15T08:09:23;6.60;99.90
12604;DHT22;6367;52.508;13.284;2024-01-15T08:11:49;6.90;99.90
12604;DHT22;6367;52.508;13.284;2024-01-15T08:14:15;6.60;99.90
12604;DHT22;6367;52.508;13.284;2024-01-15T08:16:40;6.70;99.90
12604;DHT22;6367;52.508;13.284;2024-01-15T08:19:06;6.60;99.90
12604;DHT22;6367;52.508;13.284;2024-01-15T08:21:32;7.30;99.90
12604;DHT22;6367;52.508;13.284;2024-01-15T08:24:02;6.50;99.90
12604;DHT22;6367;52.508;13.284;2024-01-15T08:26:28;6.50;99.90
12604;DHT22;6367;52.508;13.284;2024-01-15T08:28:54;6.60;99.90
12604;DHT22;6367;52.508;13.284;2024-01-15T08:31:20;6.60;99.90
12604;DHT22;6367;52.508;13.284;2024-01-15T08:33:46;7.10;99.90
12604;DHT22;6367;52.508;13.284;2024-01-15T08:36:12;6.60;99.90
12604;DHT22;6367;52.508;13.284;2024-01-15T08:38:38;7.10;99.90
12604;DHT22;6367;52.508;13.284;2024-01-15T08:41:04;6.60;99.90
12604;DHT22;6367;52.508;13.284;2024-01-15T08:43:29;6.70;99.90
12604;DHT22;6367;52.508;13.284;2024-01-15T08:45:56;6.70;99.90
12604;DHT22;6367;52.508;13.284;2024-01-15T08:48:22;6.70;99.90
12604;DHT22;6367;52.508;13.284;2024-01-15T08:50:48;6.80;99.90
12604;DHT22;6367;52.508;13.284;2024-01-15T08:53:14;6.80;99.90
12604;DHT22;6367;52.508;13.284;2024-01-15T08:55:40;6.70;99.90
12604;DHT22;6367;52.508;13.284;2024-01-15T08:58:07;6.80;99.90
12604;DHT22;6367;52.508;13.284;2024-01-15T09:00:35;6.90;99.90
12604;DHT22;6367;52.508;13.284;2024-01-15T09:03:00;6.80;99.90
12604;DHT22;6367;52.508;13.284;2024-01-15T09:05:26;6.60;99.90
12604;DHT22;6367;52.508;13.284;2024-01-15T09:07:52;6.80;99.90
12604;DHT22;6367;52.508;13.284;2024-01-15T09:10:18;6.70;99.90
12604;DHT22;6367;52.508;13.284;2024-01-15T09:12:44;6.70;99.90
12604;DHT22;6367;52.508;13.284;2024-01-15T09:15:10;6.80;99.90
12604;DHT22;6367;52.508;13.284;2024-01-15T09:17:35;6.80;99.90
12604;DHT22;6367;52.508;13.284;2024-01-15T09:20:01;6.90;99.90
12604;DHT22;6367;52.508;13.284;2024-01-15T09:22:27;6.90;99.90
12604;DHT22;6367;52.508;13.284;2024-01-15T09:24:53;7.30;99.90
12604;DHT22;6367;52.508;13.284;2024-01-15T09:27:18;6.90;99.90
12604;DHT22;6367;52.508;13.284;2024-01-15T09:29:44;7.40;99.90
12604;DHT22;6367;52.508;13.284;2024-01-15T09:32:11;6.80;99.90
12604;DHT22;6367;52.508;13.284;2024-01-15T09:34:38;7.00;99.90
12604;DHT22;6367;52.508;13.284;2024-01-15T09:37:04;6.90;99.90
12604;DHT22;6367;52.508;13.284;2024-01-15T09:39:30;6.90;99.90
12604;DHT22;6367;52.508;13.284;2024-01-15T09:41:56;6.90;99.90
12604;DHT22;6367;52.508;13.284;2024-01-15T09:44:23;7.00;99.90
12604;DHT22;6367;52.508;13.284;2024-01-15T09:46:49;7.00;99.90
12604;DHT22;6367;52.508;13.284;2024-01-15T09:49:18;7.00;99.90
12604;DHT22;6367;52.508;13.284;2024-01-15T09:51:44;7.10;99.90
12604;DHT22;6367;52.508;13.284;2024-01-15T09:54:10;7.00;99.90
12604;DHT22;6367;52.508;13.284;2024-01-15T09:56:36;7.00;99.90
12604;DHT22;6367;52.508;13.284;2024-01-15T09:59:02;7.10;99.90
12604;DHT22;6367;52.508;13.284;2024-01-15T10:01:31;7.00;99.90
12604;DHT22;6367;52.508;13.284;2024-01-15T10:03:58;6.90;99.90
12604;DHT22;6367;52.508;13.284;2024-01-15T10:06:27;7.10;99.90
12604;DHT22;6367;52.508;13.284;2024-01-15T10:08:57;7.00;99.90
12604;DHT22;6367;52.508;13.284;2024-01-15T10:11:23;7.20;99.90
12604;DHT22;6367;52.508;13.284;2024-01-15T10:13:49;7.10;99.90
12604;DHT22;6367;52.508;13.284;2024-01-15T10:16:21;7.10;99.90
12604;DHT22;6367;52.508;13.284;2024-01-15T10:18:48;7.20;99.90
12604;DHT22;6367;52.508;13.284;2024-01-15T10:21:13;7.20;99.90
12604;DHT22;6367;52.508;13.284;2024-01-15T10:23:39;7.20;99.90
12604;DHT22;6367;52.508;13.284;2024-01-15T10:26:05;7.20;99.90
12604;DHT22;6367;52.508;13.284;2024-01-15T10:28:31;7.90;99.90
12604;DHT22;6367;52.508;13.284;2024-01-15T10:30:59;7.20;99.90
12604;DHT22;6367;52.508;13.284;2024-01-15T10:33:25;7.20;99.90
12604;DHT22;6367;52.508;13.284;2024-01-15T10:35:53;7.10;99.90
12604;DHT22;6367;52.508;13.284;2024-01-15T10:38:21;7.80;99.90
12604;DHT22;6367;52.508;13.284;2024-01-15T10:40:55;7.20;99.90
12604;DHT22;6367;52.508;13.284;2024-01-15T10:43:22;7.20;99.90
12604;DHT22;6367;52.508;13.284;2024-01-15T10:45:49;7.20;99.90
12604;DHT22;6367;52.508;13.284;2024-01-15T10:48:17;7.20;99.90
12604;DHT22;6367;52.508;13.284;2024-01-15T10:50:44;7.20;99.90
12604;DHT22;6367;52.508;13.284;2024-01-15T10:53:12;7.20;99.90
12604;DHT22;6367;52.508;13.284;2024-01-15T10:55:38;7.20;99.90
12604;DHT22;6367;52.508;13.284;2024-01-15T10:58:05;7.20;99.90
12604;DHT22;6367;52.508;13.284;2024-01-15T11:00:34;7.20;99.90
12604;DHT22;6367;52.508;13.284;2024-01-15T11:03:01;7.10;99.90
12604;DHT22;6367;52.508;13.284;2024-01-15T11:05:28;7.10;99.90
12604;DHT22;6367;52.508;13.284;2024-01-15T11:07:58;7.20;99.90
12604;DHT22;6367;52.508;13.284;2024-01-15T11:13:15;7.30;99.90
12604;DHT22;6367;52.508;13.284;2024-01-15T11:23:57;7.20;99.90
12604;DHT22;6367;52.508;13.284;2024-01-15T11:31:30;7.10;99.90
12604;DHT22;6367;52.508;13.284;2024-01-15T11:34:15;7.10;99.90
12604;DHT22;6367;52.508;13.284;2024-01-15T11:37:01;7.10;99.90
12604;DHT22;6367;52.508;13.284;2024-01-15T11:42:00;7.10;99.90
12604;DHT22;6367;52.508;13.284;2024-01-15T11:44:27;7.10;99.90
12604;DHT22;6367;52.508;13.284;2024-01-15T11:47:06;7.00;99.90
12604;DHT22;6367;52.508;13.284;2024-01-15T11:52:10;6.80;99.90
12604;DHT22;6367;52.508;13.284;2024-01-15T11:54:38;6.80;99.90
12604;DHT22;6367;52.508;13.284;2024-01-15T11:57:10;6.80;99.90
12604;DHT22;6367;52.508;13.284;2024-01-15T11:59:41;6.70;99.90
12604;DHT22;6367;52.508;13.284;2024-01-15T12:02:07;6.70;99.90
12604;DHT22;6367;52.508;13.284;2024-01-15T12:04:33;6.60;99.90
12604;DHT22;6367;52.508;13.284;2024-01-15T12:06:58;7.00;99.90
12604;DHT22;6367;52.508;13.284;2024-01-15T12:09:24;6.70;99.90
12604;DHT22;6367;52.508;13.284;2024-01-15T12:12:01;6.60;99.90
12604;DHT22;6367;52.508;13.284;2024-01-15T12:14:31;6.60;99.90
12604;DHT22;6367;52.508;13.284;2024-01-15T12:16:57;6.60;99.90
12604;DHT22;6367;52.508;13.284;2024-01-15T12:19:23;6.60;99.90
12604;DHT22;6367;52.508;13.284;2024-01-15T12:21:51;6.50;99.90
12604;DHT22;6367;52.508;13.284;2024-01-15T12:24:17;6.60;99.90
12604;DHT22;6367;52.508;13.284;2024-01-15T12:26:43;6.60;99.90
12604;DHT22;6367;52.508;13.284;2024-01-15T12:29:10;6.50;99.90
12604;DHT22;6367;52.508;13.284;2024-01-15T12:31:36;6.90;99.90
12604;DHT22;6367;52.508;13.284;2024-01-15T12:34:02;6.50;99.90
12604;DHT22;6367;52.508;13.284;2024-01-15T12:36:31;6.50;99.90
12604;DHT22;6367;52.508;13.284;2024-01-15T12:39:00;6.50;99.90
12604;DHT22;6367;52.508;13.284;2024-01-15T12:41:25;7.20;99.90
12604;DHT22;6367;52.508;13.284;2024-01-15T12:43:51;6.50;99.90
12604;DHT22;6367;52.508;13.284;2024-01-15T12:46:17;6.40;99.90
12604;DHT22;6367;52.508;13.284;2024-01-15T12:48:44;6.30;99.90
12604;DHT22;6367;52.508;13.284;2024-01-15T12:51:10;6.30;99.90
12604;DHT22;6367;52.508;13.284;2024-01-15T12:53:36;6.20;99.90
12604;DHT22;6367;52.508;13.284;2024-01-15T12:56:01;6.20;99.90
12604;DHT22;6367;52.508;13.284;2024-01-15T12:58:27;6.30;99.90
12604;DHT22;6367;52.508;13.284;2024-01-15T13:00:53;6.20;99.90
12604;DHT22;6367;52.508;13.284;2024-01-15T13:03:19;6.30;99.90
12604;DHT22;6367;52.508;13.284;2024-01-15T13:05:44;6.30;99.90
12604;DHT22;6367;52.508;13.284;2024-01-15T13:08:10;6.40;99.90
12604;DHT22;6367;52.508;13.284;2024-01-15T13:10:36;6.40;99.90
12604;DHT22;6367;52.508;13.284;2024-01-15T13:13:02;6.40;99.90
12604;DHT22;6367;52.508;13.284;2024-01-15T13:15:27;6.40;99.90
12604;DHT22;6367;52.508;13.284;2024-01-15T13:17:53;6.60;99.90
12604;DHT22;6367;52.508;13.284;2024-01-15T13:20:19;6.40;99.90
12604;DHT22;6367;52.508;13.284;2024-01-15T13:22:45;6.40;99.90
12604;DHT22;6367;52.508;13.284;2024-01-15T13:25:11;7.20;99.90
12604;DHT22;6367;52.508;13.284;2024-01-15T13:27:37;6.40;99.90
12604;DHT22;6367;52.508;13.284;2024-01-15T13:30:03;6.40;99.90
12604;DHT22;6367;52.508;13.284;2024-01-15T13:32:30;6.50;99.90
12604;DHT22;6367;52.508;13.284;2024-01-15T13:34:59;6.40;99.90
12604;DHT22;6367;52.508;13.284;2024-01-15T13:37:25;6.40;99.90
12604;DHT22;6367;52.508;13.284;2024-01-15T13:39:51;6.60;99.90
12604;DHT22;6367;52.508;13.284;2024-01-15T13:42:20;6.50;99.90
12604;DHT22;6367;52.508;13.284;2024-01-15T13:44:48;6.50;99.90
12604;DHT22;6367;52.508;13.284;2024-01-15T13:47:14;6.50;99.90
12604;DHT22;6367;52.508;13.284;2024-01-15T13:49:40;6.50;99.90
12604;DHT22;6367;52.508;13.284;2024-01-15T13:52:05;6.40;99.90
12604;DHT22;6367;52.508;13.284;2024-01-15T13:54:31;6.50;99.90
12604;DHT22;6367;52.508;13.284;2024-01-15T13:56:57;6.50;99.90
12604;DHT22;6367;52.508;13.284;2024-01-15T13:59:24;6.50;99.90
12604;DHT22;6367;52.508;13.284;2024-01-15T14:01:50;6.50;99.90
12604;DHT22;6367;52.508;13.284;2024-01-15T14:04:15;6.50;99.90
12604;DHT22;6367;52.508;13.284;2024-01-15T14:06:41;6.50;99.90
12604;DHT22;6367;52.508;13.284;2024-01-15T14:09:07;6.60;99.90
12604;DHT22;6367;52.508;13.284;2024-01-15T14:11:36;6.50;99.90
12604;DHT22;6367;52.508;13.284;2024-01-15T14:14:03;6.50;99.90
12604;DHT22;6367;52.508;13.284;2024-01-15T14:16:28;6.60;99.90
12604;DHT22;6367;52.508;13.284;2024-01-15T14:18:54;6.50;99.90
12604;DHT22;6367;52.508;13.284;2024-01-15T14:21:20;6.50;99.90
12604;DHT22;6367;52.508;13.284;2024-01-15T14:23:45;7.00;99.90
12604;DHT22;6367;52.508;13.284;2024-01-15T14:26:11;6.60;99.90
12604;DHT22;6367;52.508;13.284;2024-01-15T14:28:36;6.50;99.90
12604;DHT22;6367;52.508;13.284;2024-01-15T14:31:02;6.50;99.90
12604;DHT22;6367;52.508;13.284;2024-01-15T14:33:28;6.60;99.90
12604;DHT22;6367;52.508;13.284;2024-01-15T14:35:54;6.50;99.90
12604;DHT22;6367;52.508;13.284;2024-01-15T14:38:19;6.50;99.90
12604;DHT22;6367;52.508;13.284;2024-01-15T14:40:45;6.50;99.90
12604;DHT22;6367;52.508;13.284;2024-01-15T14:43:11;6.50;99.90
12604;DHT22;6367;52.508;13.284;2024-01-15T14:45:36;7.30;99.90
12604;DHT22;6367;52.508;13.284;2024-01-15T14:48:02;6.50;99.90
12604;DHT22;6367;52.508;13.284;2024-01-15T14:50:28;6.40;99.90
12604;DHT22;6367;52.508;13.284;2024-01-15T14:52:54;6.50;99.90
12604;DHT22;6367;52.508;13.284;2024-01-15T14:55:19;6.50;99.90
12604;DHT22;6367;52.508;13.284;2024-01-15T14:57:45;6.40;99.90
12604;DHT22;6367;52.508;13.284;2024-01-15T15:00:11;6.50;99.90
12604;DHT22;6367;52.508;13.284;2024-01-15T15:02:38;6.40;99.90
12604;DHT22;6367;52.508;13.284;2024-01-15T15:05:04;7.00;99.90
12604;DHT22;6367;52.508;13.284;2024-01-15T15:07:30;6.40;99.90
12604;DHT22;6367;52.508;13.284;2024-01-15T15:09:56;6.50;99.90
12604;DHT22;6367;52.508;13.284;2024-01-15T15:12:22;6.80;99.90
12604;DHT22;6367;52.508;13.284;2024-01-15T15:14:48;6.40;99.90
12604;DHT22;6367;52.508;13.284;2024-01-15T15:17:13;6.40;99.90
12604;DHT22;6367;52.508;13.284;2024-01-15T15:19:39;6.40;99.90
12604;DHT22;6367;52.508;13.284;2024-01-15T15:22:08;6.40;99.90
12604;DHT22;6367;52.508;13.284;2024-01-15T15:24:39;6.90;99.90
12604;DHT22;6367;52.508;13.284;2024-01-15T15:27:05;6.70;99.90
12604;DHT22;6367;52.508;13.284;2024-01-15T15:29:32;6.50;99.90
12604;DHT22;6367;52.508;13.284;2024-01-15T15:31:57;6.40;99.90
12604;DHT22;6367;52.508;13.284;2024-01-15T15:34:23;7.00;99.90
12604;DHT22;6367;52.508;13.284;2024-01-15T15:36:49;7.20;99.90
12604;DHT22;6367;52.508;13.284;2024-01-15T15:39:14;6.50;99.90
12604;DHT22;6367;52.508;13.284;2024-01-15T15:41:44;6.50;99.90
12604;DHT22;6367;52.508;13.284;2024-01-15T15:44:09;6.40;99.90
12604;DHT22;6367;52.508;13.284;2024-01-15T15:46:37;6.40;99.90
12604;DHT22;6367;52.508;13.284;2024-01-15T15:49:03;6.40;99.90
12604;DHT22;6367;52.508;13.284;2024-01-15T15:51:32;6.40;99.90
12604;DHT22;6367;52.508;13.284;2024-01-15T15:53:58;6.40;99.90
12604;DHT22;6367;52.508;13.284;2024-01-15T15:56:24;6.40;99.90
12604;DHT22;6367;52.508;13.284;2024-01-15T15:58:51;6.70;99.90